sensor_id;sensor_type;location;lat;lon;timestamp;P1;durP1;ratioP1;P2;durP2;ratioP2
52458;SDS011;38372;52.902;6.024;2023-08-31T00:00:31;0.20;;;0.20;;
52458;SDS011;38372;52.902;6.024;2023-08-31T00:02:59;2.63;;;0.28;;
52458;SDS011;38372;52.902;6.024;2023-08-31T00:05:25;0.20;;;0.20;;
52458;SDS011;38372;52.902;6.024;2023-08-31T00:08:03;0.20;;;0.13;;
52458;SDS011;38372;52.902;6.024;2023-08-31T00:10:29;0.55;;;0.43;;
52458;SDS011;38372;52.902;6.024;2023-08-31T00:12:55;0.40;;;0.10;;
52458;SDS011;38372;52.902;6.024;2023-08-31T00:15:20;0.28;;;0.10;;
52458;SDS011;38372;52.902;6.024;2023-08-31T00:17:46;0.52;;;0.43;;
52458;SDS011;38372;52.902;6.024;2023-08-31T00:20:12;0.50;;;0.30;;
52458;SDS011;38372;52.902;6.024;2023-08-31T00:22:38;1.33;;;0.63;;
52458;SDS011;38372;52.902;6.024;2023-08-31T00:25:04;0.82;;;0.40;;
52458;SDS011;38372;52.902;6.024;2023-08-31T00:27:34;0.73;;;0.30;;
52458;SDS011;38372;52.902;6.024;2023-08-31T00:30:03;0.85;;;0.57;;
52458;SDS011;38372;52.902;6.024;2023-08-31T00:32:31;1.50;;;0.50;;
52458;SDS011;38372;52.902;6.024;2023-08-31T00:34:58;0.50;;;0.30;;
52458;SDS011;38372;52.902;6.024;2023-08-31T00:37:24;0.30;;;0.20;;
52458;SDS011;38372;52.902;6.024;2023-08-31T00:39:50;0.20;;;0.20;;
52458;SDS011;38372;52.902;6.024;2023-08-31T00:42:17;0.30;;;0.20;;
52458;SDS011;38372;52.902;6.024;2023-08-31T00:44:44;0.38;;;0.20;;
52458;SDS011;38372;52.902;6.024;2023-08-31T00:47:12;0.17;;;0.17;;
52458;SDS011;38372;52.902;6.024;2023-08-31T00:49:40;4.60;;;0.30;;
52458;SDS011;38372;52.902;6.024;2023-08-31T00:52:06;0.20;;;0.10;;
52458;SDS011;38372;52.902;6.024;2023-08-31T00:54:33;0.45;;;0.20;;
52458;SDS011;38372;52.902;6.024;2023-08-31T00:57:02;0.90;;;0.20;;
52458;SDS011;38372;52.902;6.024;2023-08-31T00:59:28;0.57;;;0.40;;
52458;SDS011;38372;52.902;6.024;2023-08-31T01:04:38;0.10;;;0.10;;
52458;SDS011;38372;52.902;6.024;2023-08-31T01:07:28;0.57;;;0.30;;
52458;SDS011;38372;52.902;6.024;2023-08-31T01:12:50;0.20;;;0.10;;
52458;SDS011;38372;52.902;6.024;2023-08-31T01:15:19;0.60;;;0.32;;
52458;SDS011;38372;52.902;6.024;2023-08-31T01:17:46;0.63;;;0.22;;
52458;SDS011;38372;52.902;6.024;2023-08-31T01:20:16;0.10;;;0.10;;
52458;SDS011;38372;52.902;6.024;2023-08-31T01:22:48;1.45;;;0.32;;
52458;SDS011;38372;52.902;6.024;2023-08-31T01:25:22;1.73;;;0.10;;
52458;SDS011;38372;52.902;6.024;2023-08-31T01:27:49;0.15;;;0.15;;
52458;SDS011;38372;52.902;6.024;2023-08-31T01:30:16;0.20;;;0.20;;
52458;SDS011;38372;52.902;6.024;2023-08-31T01:32:43;1.65;;;0.30;;
52458;SDS011;38372;52.902;6.024;2023-08-31T01:42:58;0.47;;;0.20;;
52458;SDS011;38372;52.902;6.024;2023-08-31T01:45:26;1.48;;;0.20;;
52458;SDS011;38372;52.902;6.024;2023-08-31T01:47:52;3.65;;;0.30;;
52458;SDS011;38372;52.902;6.024;2023-08-31T01:50:18;0.35;;;0.25;;
52458;SDS011;38372;52.902;6.024;2023-08-31T01:52:44;0.10;;;0.10;;
52458;SDS011;38372;52.902;6.024;2023-08-31T01:55:10;0.55;;;0.30;;
52458;SDS011;38372;52.902;6.024;2023-08-31T01:57:38;0.20;;;0.20;;
52458;SDS011;38372;52.902;6.024;2023-08-31T02:00:04;0.25;;;0.10;;
52458;SDS011;38372;52.902;6.024;2023-08-31T02:02:31;0.85;;;0.30;;
52458;SDS011;38372;52.902;6.024;2023-08-31T02:04:56;0.13;;;0.13;;
52458;SDS011;38372;52.902;6.024;2023-08-31T02:07:26;0.20;;;0.20;;
52458;SDS011;38372;52.902;6.024;2023-08-31T02:09:52;0.40;;;0.20;;
52458;SDS011;38372;52.902;6.024;2023-08-31T02:12:18;0.10;;;0.10;;
52458;SDS011;38372;52.902;6.024;2023-08-31T02:14:43;0.10;;;0.10;;
52458;SDS011;38372;52.902;6.024;2023-08-31T02:17:09;0.47;;;0.38;;
52458;SDS011;38372;52.902;6.024;2023-08-31T02:19:35;0.82;;;0.20;;
52458;SDS011;38372;52.902;6.024;2023-08-31T02:22:00;1.77;;;0.28;;
52458;SDS011;38372;52.902;6.024;2023-08-31T02:24:26;0.60;;;0.10;;
52458;SDS011;38372;52.902;6.024;2023-08-31T02:26:52;0.10;;;0.10;;
52458;SDS011;38372;52.902;6.024;2023-08-31T02:29:18;1.45;;;0.40;;
52458;SDS011;38372;52.902;6.024;2023-08-31T02:31:44;0.17;;;0.17;;
52458;SDS011;38372;52.902;6.024;2023-08-31T02:34:10;0.30;;;0.20;;
52458;SDS011;38372;52.902;6.024;2023-08-31T02:36:36;1.77;;;0.30;;
52458;SDS011;38372;52.902;6.024;2023-08-31T02:39:02;0.17;;;0.17;;
52458;SDS011;38372;52.902;6.024;2023-08-31T02:41:28;0.10;;;0.10;;
52458;SDS011;38372;52.902;6.024;2023-08-31T02:43:54;0.75;;;0.50;;
52458;SDS011;38372;52.902;6.024;2023-08-31T02:46:20;0.52;;;0.30;;
52458;SDS011;38372;52.902;6.024;2023-08-31T02:48:48;0.45;;;0.30;;
52458;SDS011;38372;52.902;6.024;2023-08-31T02:51:13;0.13;;;0.10;;
52458;SDS011;38372;52.902;6.024;2023-08-31T02:53:39;0.13;;;0.13;;
52458;SDS011;38372;52.902;6.024;2023-08-31T02:56:05;0.10;;;0.10;;
52458;SDS011;38372;52.902;6.024;2023-08-31T02:58:30;0.30;;;0.20;;
52458;SDS011;38372;52.902;6.024;2023-08-31T03:01:07;1.30;;;0.57;;
52458;SDS011;38372;52.902;6.024;2023-08-31T03:03:37;0.40;;;0.40;;
52458;SDS011;38372;52.902;6.024;2023-08-31T03:06:03;1.98;;;1.15;;
52458;SDS011;38372;52.902;6.024;2023-08-31T03:08:31;0.80;;;0.45;;
52458;SDS011;38372;52.902;6.024;2023-08-31T03:10:56;0.90;;;0.63;;
52458;SDS011;38372;52.902;6.024;2023-08-31T03:13:23;0.75;;;0.70;;
52458;SDS011;38372;52.902;6.024;2023-08-31T03:15:49;0.88;;;0.50;;
52458;SDS011;38372;52.902;6.024;2023-08-31T03:18:15;1.33;;;0.68;;
52458;SDS011;38372;52.902;6.024;2023-08-31T03:20:40;1.30;;;0.80;;
52458;SDS011;38372;52.902;6.024;2023-08-31T03:23:06;3.78;;;0.98;;
52458;SDS011;38372;52.902;6.024;2023-08-31T03:25:32;2.85;;;1.10;;
52458;SDS011;38372;52.902;6.024;2023-08-31T03:27:57;1.80;;;1.38;;
52458;SDS011;38372;52.902;6.024;2023-08-31T03:30:23;1.90;;;1.15;;
52458;SDS011;38372;52.902;6.024;2023-08-31T03:32:49;1.73;;;1.02;;
52458;SDS011;38372;52.902;6.024;2023-08-31T03:35:15;1.27;;;0.75;;
52458;SDS011;38372;52.902;6.024;2023-08-31T03:37:41;2.42;;;1.17;;
52458;SDS011;38372;52.902;6.024;2023-08-31T03:40:07;4.90;;;0.90;;
52458;SDS011;38372;52.902;6.024;2023-08-31T03:42:34;4.40;;;1.58;;
52458;SDS011;38372;52.902;6.024;2023-08-31T03:45:00;2.83;;;1.45;;
52458;SDS011;38372;52.902;6.024;2023-08-31T03:47:28;1.50;;;0.80;;
52458;SDS011;38372;52.902;6.024;2023-08-31T03:49:54;2.72;;;0.90;;
52458;SDS011;38372;52.902;6.024;2023-08-31T03:52:19;3.58;;;1.40;;
52458;SDS011;38372;52.902;6.024;2023-08-31T03:54:45;2.22;;;1.17;;
52458;SDS011;38372;52.902;6.024;2023-08-31T03:57:11;2.55;;;1.40;;
52458;SDS011;38372;52.902;6.024;2023-08-31T03:59:37;2.50;;;1.05;;
52458;SDS011;38372;52.902;6.024;2023-08-31T04:02:02;1.65;;;1.10;;
52458;SDS011;38372;52.902;6.024;2023-08-31T04:04:29;3.03;;;1.33;;
52458;SDS011;38372;52.902;6.024;2023-08-31T04:06:54;1.98;;;1.00;;
52458;SDS011;38372;52.902;6.024;2023-08-31T04:09:20;1.95;;;0.70;;
52458;SDS011;38372;52.902;6.024;2023-08-31T04:11:47;8.00;;;1.33;;
52458;SDS011;38372;52.902;6.024;2023-08-31T04:14:12;1.27;;;0.70;;
52458;SDS011;38372;52.902;6.024;2023-08-31T04:16:38;2.17;;;0.70;;
52458;SDS011;38372;52.902;6.024;2023-08-31T04:19:04;1.50;;;0.80;;
52458;SDS011;38372;52.902;6.024;2023-08-31T04:21:29;2.13;;;1.00;;
52458;SDS011;38372;52.902;6.024;2023-08-31T04:23:55;1.70;;;0.88;;
52458;SDS011;38372;52.902;6.024;2023-08-31T04:26:21;5.32;;;1.15;;
52458;SDS011;38372;52.902;6.024;2023-08-31T04:28:48;1.75;;;0.77;;
52458;SDS011;38372;52.902;6.024;2023-08-31T04:31:14;1.15;;;0.70;;
52458;SDS011;38372;52.902;6.024;2023-08-31T04:33:40;1.38;;;0.55;;
52458;SDS011;38372;52.902;6.024;2023-08-31T04:36:06;1.00;;;0.90;;
52458;SDS011;38372;52.902;6.024;2023-08-31T04:38:32;0.60;;;0.50;;
52458;SDS011;38372;52.902;6.024;2023-08-31T04:40:59;1.92;;;1.10;;
52458;SDS011;38372;52.902;6.024;2023-08-31T04:43:25;1.67;;;1.00;;
52458;SDS011;38372;52.902;6.024;2023-08-31T04:45:51;3.03;;;1.40;;
52458;SDS011;38372;52.902;6.024;2023-08-31T04:48:17;1.67;;;0.90;;
52458;SDS011;38372;52.902;6.024;2023-08-31T04:50:43;1.45;;;0.60;;
52458;SDS011;38372;52.902;6.024;2023-08-31T04:53:09;2.20;;;0.60;;
52458;SDS011;38372;52.902;6.024;2023-08-31T04:55:35;2.33;;;0.80;;
52458;SDS011;38372;52.902;6.024;2023-08-31T04:58:00;2.35;;;1.08;;
52458;SDS011;38372;52.902;6.024;2023-08-31T05:00:26;2.00;;;0.93;;
52458;SDS011;38372;52.902;6.024;2023-08-31T05:02:52;3.13;;;0.90;;
52458;SDS011;38372;52.902;6.024;2023-08-31T05:05:18;1.30;;;0.60;;
52458;SDS011;38372;52.902;6.024;2023-08-31T05:07:43;4.18;;;0.90;;
52458;SDS011;38372;52.902;6.024;2023-08-31T05:10:09;2.45;;;1.00;;
52458;SDS011;38372;52.902;6.024;2023-08-31T05:12:35;1.67;;;0.95;;
52458;SDS011;38372;52.902;6.024;2023-08-31T05:15:01;1.23;;;0.50;;
52458;SDS011;38372;52.902;6.024;2023-08-31T05:17:28;6.85;;;0.88;;
52458;SDS011;38372;52.902;6.024;2023-08-31T05:19:55;1.08;;;0.63;;
52458;SDS011;38372;52.902;6.024;2023-08-31T05:22:21;1.23;;;0.75;;
52458;SDS011;38372;52.902;6.024;2023-08-31T05:24:47;0.73;;;0.43;;
52458;SDS011;38372;52.902;6.024;2023-08-31T05:27:13;1.38;;;0.77;;
52458;SDS011;38372;52.902;6.024;2023-08-31T05:29:39;1.33;;;0.70;;
52458;SDS011;38372;52.902;6.024;2023-08-31T05:32:05;1.95;;;0.50;;
52458;SDS011;38372;52.902;6.024;2023-08-31T05:34:31;0.80;;;0.45;;
52458;SDS011;38372;52.902;6.024;2023-08-31T05:36:59;0.93;;;0.40;;
52458;SDS011;38372;52.902;6.024;2023-08-31T05:39:25;1.45;;;0.50;;
52458;SDS011;38372;52.902;6.024;2023-08-31T05:41:51;3.33;;;0.85;;
52458;SDS011;38372;52.902;6.024;2023-08-31T05:44:17;2.72;;;0.65;;
52458;SDS011;38372;52.902;6.024;2023-08-31T05:46:43;5.50;;;0.90;;
52458;SDS011;38372;52.902;6.024;2023-08-31T05:49:08;1.35;;;0.90;;
52458;SDS011;38372;52.902;6.024;2023-08-31T05:51:34;2.60;;;1.38;;
52458;SDS011;38372;52.902;6.024;2023-08-31T05:54:00;2.22;;;0.90;;
52458;SDS011;38372;52.902;6.024;2023-08-31T05:56:26;2.88;;;1.02;;
52458;SDS011;38372;52.902;6.024;2023-08-31T05:58:52;1.55;;;1.02;;
52458;SDS011;38372;52.902;6.024;2023-08-31T06:01:20;1.65;;;0.82;;
52458;SDS011;38372;52.902;6.024;2023-08-31T06:03:47;2.42;;;0.80;;
52458;SDS011;38372;52.902;6.024;2023-08-31T06:06:13;2.30;;;1.02;;
52458;SDS011;38372;52.902;6.024;2023-08-31T06:08:39;0.77;;;0.60;;
52458;SDS011;38372;52.902;6.024;2023-08-31T06:11:07;0.90;;;0.40;;
52458;SDS011;38372;52.902;6.024;2023-08-31T06:13:33;0.47;;;0.20;;
52458;SDS011;38372;52.902;6.024;2023-08-31T06:15:59;1.90;;;0.63;;
52458;SDS011;38372;52.902;6.024;2023-08-31T06:18:25;0.20;;;0.20;;
52458;SDS011;38372;52.902;6.024;2023-08-31T06:20:51;0.30;;;0.30;;
52458;SDS011;38372;52.902;6.024;2023-08-31T06:23:17;0.32;;;0.20;;
52458;SDS011;38372;52.902;6.024;2023-08-31T06:25:43;0.60;;;0.30;;
52458;SDS011;38372;52.902;6.024;2023-08-31T06:28:11;1.55;;;0.52;;
52458;SDS011;38372;52.902;6.024;2023-08-31T06:30:37;1.77;;;0.30;;
52458;SDS011;38372;52.902;6.024;2023-08-31T06:33:04;0.88;;;0.40;;
52458;SDS011;38372;52.902;6.024;2023-08-31T06:35:30;0.52;;;0.20;;
52458;SDS011;38372;52.902;6.024;2023-08-31T06:37:58;2.20;;;0.22;;
52458;SDS011;38372;52.902;6.024;2023-08-31T06:40:24;0.20;;;0.20;;
52458;SDS011;38372;52.902;6.024;2023-08-31T06:42:50;0.15;;;0.15;;
52458;SDS011;38372;52.902;6.024;2023-08-31T06:45:16;0.32;;;0.22;;
52458;SDS011;38372;52.902;6.024;2023-08-31T06:47:42;0.30;;;0.17;;
52458;SDS011;38372;52.902;6.024;2023-08-31T06:50:08;2.40;;;0.30;;
52458;SDS011;38372;52.902;6.024;2023-08-31T06:52:34;1.17;;;0.50;;
52458;SDS011;38372;52.902;6.024;2023-08-31T06:55:00;0.70;;;0.20;;
52458;SDS011;38372;52.902;6.024;2023-08-31T06:57:26;0.68;;;0.30;;
52458;SDS011;38372;52.902;6.024;2023-08-31T06:59:53;0.98;;;0.57;;
52458;SDS011;38372;52.902;6.024;2023-08-31T07:02:19;1.33;;;0.30;;
52458;SDS011;38372;52.902;6.024;2023-08-31T07:04:45;0.95;;;0.22;;
52458;SDS011;38372;52.902;6.024;2023-08-31T07:07:13;1.20;;;0.40;;
52458;SDS011;38372;52.902;6.024;2023-08-31T07:09:39;0.70;;;0.30;;
52458;SDS011;38372;52.902;6.024;2023-08-31T07:12:09;0.52;;;0.30;;
52458;SDS011;38372;52.902;6.024;2023-08-31T07:14:35;0.10;;;0.10;;
52458;SDS011;38372;52.902;6.024;2023-08-31T07:17:01;0.30;;;0.20;;
52458;SDS011;38372;52.902;6.024;2023-08-31T07:24:30;0.25;;;0.15;;
52458;SDS011;38372;52.902;6.024;2023-08-31T07:26:59;0.90;;;0.45;;
52458;SDS011;38372;52.902;6.024;2023-08-31T07:29:27;0.95;;;0.20;;
52458;SDS011;38372;52.902;6.024;2023-08-31T07:31:53;1.00;;;0.43;;
52458;SDS011;38372;52.902;6.024;2023-08-31T07:34:19;0.60;;;0.10;;
52458;SDS011;38372;52.902;6.024;2023-08-31T07:36:45;0.82;;;0.22;;
52458;SDS011;38372;52.902;6.024;2023-08-31T07:39:12;0.35;;;0.20;;
52458;SDS011;38372;52.902;6.024;2023-08-31T07:41:37;0.43;;;0.40;;
52458;SDS011;38372;52.902;6.024;2023-08-31T07:44:04;0.40;;;0.17;;
52458;SDS011;38372;52.902;6.024;2023-08-31T07:46:31;1.13;;;0.20;;
52458;SDS011;38372;52.902;6.024;2023-08-31T07:48:56;0.10;;;0.10;;
52458;SDS011;38372;52.902;6.024;2023-08-31T07:51:22;1.30;;;0.30;;
52458;SDS011;38372;52.902;6.024;2023-08-31T07:53:52;0.47;;;0.10;;
52458;SDS011;38372;52.902;6.024;2023-08-31T07:56:18;0.98;;;0.15;;
52458;SDS011;38372;52.902;6.024;2023-08-31T07:58:44;1.70;;;0.20;;
52458;SDS011;38372;52.902;6.024;2023-08-31T08:01:10;0.25;;;0.10;;
52458;SDS011;38372;52.902;6.024;2023-08-31T08:03:35;0.32;;;0.30;;
52458;SDS011;38372;52.902;6.024;2023-08-31T08:06:01;0.35;;;0.10;;
52458;SDS011;38372;52.902;6.024;2023-08-31T08:08:30;0.20;;;0.20;;
52458;SDS011;38372;52.902;6.024;2023-08-31T08:10:55;0.52;;;0.30;;
52458;SDS011;38372;52.902;6.024;2023-08-31T08:13:21;0.10;;;0.10;;
52458;SDS011;38372;52.902;6.024;2023-08-31T08:15:47;0.22;;;0.17;;
52458;SDS011;38372;52.902;6.024;2023-08-31T08:18:13;1.13;;;0.17;;
52458;SDS011;38372;52.902;6.024;2023-08-31T08:20:38;0.10;;;0.10;;
52458;SDS011;38372;52.902;6.024;2023-08-31T08:23:05;0.10;;;0.10;;
52458;SDS011;38372;52.902;6.024;2023-08-31T08:25:31;0.10;;;0.10;;
52458;SDS011;38372;52.902;6.024;2023-08-31T08:27:57;0.30;;;0.15;;
52458;SDS011;38372;52.902;6.024;2023-08-31T08:30:23;0.57;;;0.25;;
52458;SDS011;38372;52.902;6.024;2023-08-31T08:32:49;0.30;;;0.10;;
52458;SDS011;38372;52.902;6.024;2023-08-31T08:35:14;0.68;;;0.20;;
52458;SDS011;38372;52.902;6.024;2023-08-31T08:37:40;0.20;;;0.20;;
52458;SDS011;38372;52.902;6.024;2023-08-31T08:40:06;0.57;;;0.20;;
52458;SDS011;38372;52.902;6.024;2023-08-31T08:42:32;0.20;;;0.10;;
52458;SDS011;38372;52.902;6.024;2023-08-31T08:45:07;0.03;;;0.03;;
52458;SDS011;38372;52.902;6.024;2023-08-31T08:47:38;0.15;;;0.10;;
52458;SDS011;38372;52.902;6.024;2023-08-31T08:50:05;0.45;;;0.08;;
52458;SDS011;38372;52.902;6.024;2023-08-31T08:52:32;0.47;;;0.30;;
52458;SDS011;38372;52.902;6.024;2023-08-31T08:54:57;0.05;;;0.05;;
52458;SDS011;38372;52.902;6.024;2023-08-31T08:57:26;0.10;;;0.10;;
52458;SDS011;38372;52.902;6.024;2023-08-31T08:59:51;0.10;;;0.10;;
52458;SDS011;38372;52.902;6.024;2023-08-31T09:02:17;0.00;;;0.00;;
52458;SDS011;38372;52.902;6.024;2023-08-31T09:04:43;0.45;;;0.28;;
52458;SDS011;38372;52.902;6.024;2023-08-31T09:07:09;0.00;;;0.00;;
52458;SDS011;38372;52.902;6.024;2023-08-31T09:09:48;1.38;;;0.20;;
52458;SDS011;38372;52.902;6.024;2023-08-31T09:12:15;1.30;;;0.20;;
52458;SDS011;38372;52.902;6.024;2023-08-31T09:14:41;0.00;;;0.00;;
52458;SDS011;38372;52.902;6.024;2023-08-31T09:17:07;1.33;;;0.15;;
52458;SDS011;38372;52.902;6.024;2023-08-31T09:19:33;2.05;;;0.10;;
52458;SDS011;38372;52.902;6.024;2023-08-31T09:21:58;0.00;;;0.00;;
52458;SDS011;38372;52.902;6.024;2023-08-31T09:24:24;0.45;;;0.10;;
52458;SDS011;38372;52.902;6.024;2023-08-31T09:26:55;0.10;;;0.00;;
52458;SDS011;38372;52.902;6.024;2023-08-31T09:29:22;0.05;;;0.03;;
52458;SDS011;38372;52.902;6.024;2023-08-31T09:31:48;0.90;;;0.30;;
52458;SDS011;38372;52.902;6.024;2023-08-31T09:34:14;0.60;;;0.30;;
52458;SDS011;38372;52.902;6.024;2023-08-31T09:36:41;0.00;;;0.00;;
52458;SDS011;38372;52.902;6.024;2023-08-31T09:39:07;3.70;;;0.30;;
52458;SDS011;38372;52.902;6.024;2023-08-31T09:41:53;0.50;;;0.20;;
52458;SDS011;38372;52.902;6.024;2023-08-31T09:44:20;0.47;;;0.10;;
52458;SDS011;38372;52.902;6.024;2023-08-31T09:46:46;0.05;;;0.05;;
52458;SDS011;38372;52.902;6.024;2023-08-31T09:49:13;0.10;;;0.03;;
52458;SDS011;38372;52.902;6.024;2023-08-31T09:51:41;0.77;;;0.40;;
52458;SDS011;38372;52.902;6.024;2023-08-31T09:54:15;0.43;;;0.28;;
52458;SDS011;38372;52.902;6.024;2023-08-31T09:56:42;0.10;;;0.00;;
52458;SDS011;38372;52.902;6.024;2023-08-31T09:59:09;2.83;;;0.28;;
52458;SDS011;38372;52.902;6.024;2023-08-31T10:01:37;0.10;;;0.10;;
52458;SDS011;38372;52.902;6.024;2023-08-31T10:04:04;0.10;;;0.05;;
52458;SDS011;38372;52.902;6.024;2023-08-31T10:06:31;0.17;;;0.10;;
52458;SDS011;38372;52.902;6.024;2023-08-31T10:08:57;0.70;;;0.13;;
52458;SDS011;38372;52.902;6.024;2023-08-31T10:11:24;0.00;;;0.00;;
52458;SDS011;38372;52.902;6.024;2023-08-31T10:13:51;1.45;;;0.10;;
52458;SDS011;38372;52.902;6.024;2023-08-31T10:16:19;0.28;;;0.10;;
52458;SDS011;38372;52.902;6.024;2023-08-31T10:18:45;0.73;;;0.30;;
52458;SDS011;38372;52.902;6.024;2023-08-31T10:21:11;1.08;;;0.20;;
52458;SDS011;38372;52.902;6.024;2023-08-31T10:23:47;1.65;;;0.30;;
52458;SDS011;38372;52.902;6.024;2023-08-31T10:26:30;0.10;;;0.10;;
52458;SDS011;38372;52.902;6.024;2023-08-31T10:28:57;0.45;;;0.20;;
52458;SDS011;38372;52.902;6.024;2023-08-31T10:31:24;1.70;;;0.20;;
52458;SDS011;38372;52.902;6.024;2023-08-31T10:33:58;0.32;;;0.13;;
52458;SDS011;38372;52.902;6.024;2023-08-31T10:36:39;0.22;;;0.10;;
52458;SDS011;38372;52.902;6.024;2023-08-31T10:39:18;0.40;;;0.17;;
52458;SDS011;38372;52.902;6.024;2023-08-31T10:41:56;0.10;;;0.05;;
52458;SDS011;38372;52.902;6.024;2023-08-31T10:44:26;0.10;;;0.00;;
52458;SDS011;38372;52.902;6.024;2023-08-31T10:46:55;0.10;;;0.10;;
52458;SDS011;38372;52.902;6.024;2023-08-31T10:49:25;1.92;;;0.20;;
52458;SDS011;38372;52.902;6.024;2023-08-31T10:51:55;2.28;;;0.30;;
52458;SDS011;38372;52.902;6.024;2023-08-31T10:54:25;0.57;;;0.30;;
52458;SDS011;38372;52.902;6.024;2023-08-31T10:59:41;0.25;;;0.05;;
52458;SDS011;38372;52.902;6.024;2023-08-31T11:05:02;0.85;;;0.10;;
52458;SDS011;38372;52.902;6.024;2023-08-31T11:07:35;0.65;;;0.40;;
52458;SDS011;38372;52.902;6.024;2023-08-31T11:12:38;0.10;;;0.10;;
52458;SDS011;38372;52.902;6.024;2023-08-31T11:15:08;0.30;;;0.20;;
52458;SDS011;38372;52.902;6.024;2023-08-31T11:17:37;0.40;;;0.30;;
52458;SDS011;38372;52.902;6.024;2023-08-31T11:20:05;0.00;;;0.00;;
52458;SDS011;38372;52.902;6.024;2023-08-31T11:22:31;0.25;;;0.10;;
52458;SDS011;38372;52.902;6.024;2023-08-31T11:25:00;0.28;;;0.15;;
52458;SDS011;38372;52.902;6.024;2023-08-31T11:27:26;0.40;;;0.20;;
52458;SDS011;38372;52.902;6.024;2023-08-31T11:29:52;0.77;;;0.10;;
52458;SDS011;38372;52.902;6.024;2023-08-31T11:32:18;0.20;;;0.10;;
52458;SDS011;38372;52.902;6.024;2023-08-31T11:34:44;0.57;;;0.28;;
52458;SDS011;38372;52.902;6.024;2023-08-31T11:37:11;0.20;;;0.00;;
52458;SDS011;38372;52.902;6.024;2023-08-31T11:39:50;0.85;;;0.32;;
52458;SDS011;38372;52.902;6.024;2023-08-31T11:42:20;0.70;;;0.10;;
52458;SDS011;38372;52.902;6.024;2023-08-31T11:44:47;0.25;;;0.10;;
52458;SDS011;38372;52.902;6.024;2023-08-31T11:47:14;0.40;;;0.10;;
52458;SDS011;38372;52.902;6.024;2023-08-31T11:49:41;0.45;;;0.15;;
52458;SDS011;38372;52.902;6.024;2023-08-31T11:52:09;1.70;;;0.20;;
52458;SDS011;38372;52.902;6.024;2023-08-31T11:54:37;1.38;;;0.28;;
52458;SDS011;38372;52.902;6.024;2023-08-31T12:00:45;1.10;;;0.20;;
52458;SDS011;38372;52.902;6.024;2023-08-31T12:03:19;2.75;;;0.20;;
52458;SDS011;38372;52.902;6.024;2023-08-31T12:05:45;2.63;;;0.25;;
52458;SDS011;38372;52.902;6.024;2023-08-31T12:08:12;1.45;;;0.40;;
52458;SDS011;38372;52.902;6.024;2023-08-31T12:10:43;0.98;;;0.30;;
52458;SDS011;38372;52.902;6.024;2023-08-31T12:13:11;0.22;;;0.20;;
52458;SDS011;38372;52.902;6.024;2023-08-31T12:15:40;1.75;;;0.32;;
52458;SDS011;38372;52.902;6.024;2023-08-31T12:18:10;0.30;;;0.20;;
52458;SDS011;38372;52.902;6.024;2023-08-31T12:20:47;1.00;;;0.20;;
52458;SDS011;38372;52.902;6.024;2023-08-31T12:23:16;0.35;;;0.15;;
52458;SDS011;38372;52.902;6.024;2023-08-31T12:25:46;1.20;;;0.68;;
52458;SDS011;38372;52.902;6.024;2023-08-31T12:28:19;2.78;;;0.30;;
52458;SDS011;38372;52.902;6.024;2023-08-31T12:30:49;0.65;;;0.20;;
52458;SDS011;38372;52.902;6.024;2023-08-31T12:33:16;0.95;;;0.43;;
52458;SDS011;38372;52.902;6.024;2023-08-31T12:35:43;0.63;;;0.20;;
52458;SDS011;38372;52.902;6.024;2023-08-31T12:38:09;0.85;;;0.30;;
52458;SDS011;38372;52.902;6.024;2023-08-31T12:40:35;0.60;;;0.20;;
52458;SDS011;38372;52.902;6.024;2023-08-31T12:43:04;0.30;;;0.28;;
52458;SDS011;38372;52.902;6.024;2023-08-31T12:45:31;0.20;;;0.20;;
52458;SDS011;38372;52.902;6.024;2023-08-31T12:47:58;1.17;;;0.40;;
52458;SDS011;38372;52.902;6.024;2023-08-31T12:50:25;1.35;;;0.30;;
52458;SDS011;38372;52.902;6.024;2023-08-31T12:52:50;0.47;;;0.30;;
52458;SDS011;38372;52.902;6.024;2023-08-31T12:55:16;0.80;;;0.28;;
52458;SDS011;38372;52.902;6.024;2023-08-31T12:57:42;1.80;;;0.30;;
52458;SDS011;38372;52.902;6.024;2023-08-31T13:00:09;0.15;;;0.15;;
52458;SDS011;38372;52.902;6.024;2023-08-31T13:02:39;2.30;;;0.65;;
52458;SDS011;38372;52.902;6.024;2023-08-31T13:05:06;0.32;;;0.20;;
52458;SDS011;38372;52.902;6.024;2023-08-31T13:07:33;0.20;;;0.20;;
52458;SDS011;38372;52.902;6.024;2023-08-31T13:10:01;0.10;;;0.10;;
52458;SDS011;38372;52.902;6.024;2023-08-31T13:12:32;1.13;;;0.40;;
52458;SDS011;38372;52.902;6.024;2023-08-31T13:14:58;0.30;;;0.20;;
52458;SDS011;38372;52.902;6.024;2023-08-31T13:17:25;0.40;;;0.30;;
52458;SDS011;38372;52.902;6.024;2023-08-31T13:19:52;0.63;;;0.30;;
52458;SDS011;38372;52.902;6.024;2023-08-31T13:22:18;2.75;;;0.20;;
52458;SDS011;38372;52.902;6.024;2023-08-31T13:24:45;0.10;;;0.10;;
52458;SDS011;38372;52.902;6.024;2023-08-31T13:27:11;0.13;;;0.13;;
52458;SDS011;38372;52.902;6.024;2023-08-31T13:29:37;1.45;;;0.60;;
52458;SDS011;38372;52.902;6.024;2023-08-31T13:32:04;1.45;;;0.40;;
52458;SDS011;38372;52.902;6.024;2023-08-31T13:34:30;0.40;;;0.38;;
52458;SDS011;38372;52.902;6.024;2023-08-31T13:36:56;1.33;;;0.20;;
52458;SDS011;38372;52.902;6.024;2023-08-31T13:39:22;0.68;;;0.20;;
52458;SDS011;38372;52.902;6.024;2023-08-31T13:41:50;0.82;;;0.15;;
52458;SDS011;38372;52.902;6.024;2023-08-31T13:44:17;2.45;;;0.22;;
52458;SDS011;38372;52.902;6.024;2023-08-31T13:46:43;0.73;;;0.30;;
52458;SDS011;38372;52.902;6.024;2023-08-31T13:49:08;1.67;;;0.55;;
52458;SDS011;38372;52.902;6.024;2023-08-31T13:51:34;2.08;;;0.47;;
52458;SDS011;38372;52.902;6.024;2023-08-31T13:54:02;1.00;;;0.40;;
52458;SDS011;38372;52.902;6.024;2023-08-31T13:56:32;2.40;;;0.25;;
52458;SDS011;38372;52.902;6.024;2023-08-31T13:58:58;1.77;;;0.28;;
52458;SDS011;38372;52.902;6.024;2023-08-31T14:01:24;1.58;;;0.25;;
52458;SDS011;38372;52.902;6.024;2023-08-31T14:03:50;0.25;;;0.20;;
52458;SDS011;38372;52.902;6.024;2023-08-31T14:06:16;0.98;;;0.30;;
52458;SDS011;38372;52.902;6.024;2023-08-31T14:08:42;1.98;;;0.30;;
52458;SDS011;38372;52.902;6.024;2023-08-31T14:11:08;0.22;;;0.15;;
52458;SDS011;38372;52.902;6.024;2023-08-31T14:13:34;2.03;;;0.52;;
52458;SDS011;38372;52.902;6.024;2023-08-31T14:15:59;0.43;;;0.17;;
52458;SDS011;38372;52.902;6.024;2023-08-31T14:18:26;0.50;;;0.20;;
52458;SDS011;38372;52.902;6.024;2023-08-31T14:20:54;0.68;;;0.25;;
52458;SDS011;38372;52.902;6.024;2023-08-31T14:23:20;1.13;;;0.25;;
52458;SDS011;38372;52.902;6.024;2023-08-31T14:25:46;1.13;;;0.35;;
52458;SDS011;38372;52.902;6.024;2023-08-31T14:28:11;0.57;;;0.20;;
52458;SDS011;38372;52.902;6.024;2023-08-31T14:30:37;1.08;;;0.40;;
52458;SDS011;38372;52.902;6.024;2023-08-31T14:33:03;0.85;;;0.55;;
52458;SDS011;38372;52.902;6.024;2023-08-31T14:35:30;1.25;;;0.40;;
52458;SDS011;38372;52.902;6.024;2023-08-31T14:37:56;2.50;;;0.25;;
52458;SDS011;38372;52.902;6.024;2023-08-31T14:40:23;1.88;;;0.57;;
52458;SDS011;38372;52.902;6.024;2023-08-31T14:42:49;1.23;;;0.55;;
52458;SDS011;38372;52.902;6.024;2023-08-31T14:45:15;1.08;;;0.43;;
52458;SDS011;38372;52.902;6.024;2023-08-31T14:47:40;0.43;;;0.32;;
52458;SDS011;38372;52.902;6.024;2023-08-31T14:50:07;0.22;;;0.10;;
52458;SDS011;38372;52.902;6.024;2023-08-31T14:52:33;0.35;;;0.10;;
52458;SDS011;38372;52.902;6.024;2023-08-31T14:54:59;1.67;;;0.43;;
52458;SDS011;38372;52.902;6.024;2023-08-31T14:57:25;2.70;;;0.20;;
52458;SDS011;38372;52.902;6.024;2023-08-31T14:59:51;0.60;;;0.22;;
52458;SDS011;38372;52.902;6.024;2023-08-31T15:02:21;2.58;;;0.32;;
52458;SDS011;38372;52.902;6.024;2023-08-31T15:04:47;1.00;;;0.30;;
52458;SDS011;38372;52.902;6.024;2023-08-31T15:09:43;1.42;;;0.30;;
52458;SDS011;38372;52.902;6.024;2023-08-31T15:12:09;0.63;;;0.32;;
52458;SDS011;38372;52.902;6.024;2023-08-31T15:14:36;2.80;;;0.40;;
52458;SDS011;38372;52.902;6.024;2023-08-31T15:17:04;1.50;;;0.60;;
52458;SDS011;38372;52.902;6.024;2023-08-31T15:19:30;0.52;;;0.22;;